sensor_id;sensor_type;location;lat;lon;timestamp;pressure;altitude;pressure_sealevel;temperature;humidity
64340;BME280;63709;53.258;-8.814;2023-02-28T00:00:41;103853.66;;;10.18;100.00
64340;BME280;63709;53.258;-8.814;2023-02-28T00:03:07;103857.22;;;10.17;100.00
64340;BME280;63709;53.258;-8.814;2023-02-28T00:05:38;103851.91;;;10.17;100.00
64340;BME280;63709;53.258;-8.814;2023-02-28T00:08:03;103858.06;;;10.19;100.00
64340;BME280;63709;53.258;-8.814;2023-02-28T00:10:31;103855.38;;;10.19;100.00
64340;BME280;63709;53.258;-8.814;2023-02-28T00:13:03;103853.53;;;10.23;100.00
64340;BME280;63709;53.258;-8.814;2023-02-28T00:15:29;103851.81;;;10.20;100.00
64340;BME280;63709;53.258;-8.814;2023-02-28T00:17:55;103856.16;;;10.26;100.00
64340;BME280;63709;53.258;-8.814;2023-02-28T00:22:50;103855.28;;;10.25;100.00
64340;BME280;63709;53.258;-8.814;2023-02-28T00:25:19;103852.69;;;10.21;100.00
64340;BME280;63709;53.258;-8.814;2023-02-28T00:27:46;103852.88;;;10.13;100.00
64340;BME280;63709;53.258;-8.814;2023-02-28T00:30:13;103859.03;;;10.16;100.00
64340;BME280;63709;53.258;-8.814;2023-02-28T00:32:40;103868.66;;;10.22;100.00
64340;BME280;63709;53.258;-8.814;2023-02-28T00:35:15;103850.91;;;10.21;100.00
64340;BME280;63709;53.258;-8.814;2023-02-28T00:37:42;103856.16;;;10.24;100.00
64340;BME280;63709;53.258;-8.814;2023-02-28T00:40:09;103858.91;;;10.21;100.00
64340;BME280;63709;53.258;-8.814;2023-02-28T00:42:46;103854.50;;;10.18;100.00
64340;BME280;63709;53.258;-8.814;2023-02-28T00:45:12;103868.84;;;10.16;100.00
64340;BME280;63709;53.258;-8.814;2023-02-28T00:47:39;103863.50;;;10.14;100.00
64340;BME280;63709;53.258;-8.814;2023-02-28T00:50:06;103858.09;;;10.17;100.00
64340;BME280;63709;53.258;-8.814;2023-02-28T00:52:38;103867.03;;;10.16;100.00
64340;BME280;63709;53.258;-8.814;2023-02-28T00:55:04;103867.88;;;10.18;100.00
64340;BME280;63709;53.258;-8.814;2023-02-28T00:57:36;103866.06;;;10.19;100.00
64340;BME280;63709;53.258;-8.814;2023-02-28T01:00:13;103867.78;;;10.22;100.00
64340;BME280;63709;53.258;-8.814;2023-02-28T01:02:39;103867.84;;;10.20;100.00
64340;BME280;63709;53.258;-8.814;2023-02-28T01:05:04;103877.53;;;10.24;100.00
64340;BME280;63709;53.258;-8.814;2023-02-28T01:07:30;103874.69;;;10.32;100.00
64340;BME280;63709;53.258;-8.814;2023-02-28T01:09:55;103882.53;;;10.38;100.00
64340;BME280;63709;53.258;-8.814;2023-02-28T01:12:20;103878.97;;;10.39;100.00
64340;BME280;63709;53.258;-8.814;2023-02-28T01:14:57;103877.09;;;10.43;98.14
64340;BME280;63709;53.258;-8.814;2023-02-28T01:17:24;103878.13;;;10.37;99.95
64340;BME280;63709;53.258;-8.814;2023-02-28T01:22:23;103882.88;;;10.23;100.00
64340;BME280;63709;53.258;-8.814;2023-02-28T01:25:03;103883.75;;;10.25;100.00
64340;BME280;63709;53.258;-8.814;2023-02-28T01:27:28;103891.78;;;10.23;100.00
64340;BME280;63709;53.258;-8.814;2023-02-28T01:29:58;103884.66;;;10.25;100.00
64340;BME280;63709;53.258;-8.814;2023-02-28T01:32:23;103888.22;;;10.24;100.00
64340;BME280;63709;53.258;-8.814;2023-02-28T01:34:50;103885.53;;;10.24;100.00
64340;BME280;63709;53.258;-8.814;2023-02-28T01:37:15;103878.53;;;10.18;100.00
64340;BME280;63709;53.258;-8.814;2023-02-28T01:39:40;103890.13;;;10.17;100.00
64340;BME280;63709;53.258;-8.814;2023-02-28T01:47:34;103886.41;;;10.26;100.00
64340;BME280;63709;53.258;-8.814;2023-02-28T01:50:00;103890.78;;;10.29;100.00
64340;BME280;63709;53.258;-8.814;2023-02-28T01:52:40;103896.34;;;10.18;100.00
64340;BME280;63709;53.258;-8.814;2023-02-28T01:55:06;103899.97;;;10.15;100.00
64340;BME280;63709;53.258;-8.814;2023-02-28T01:57:33;103895.66;;;10.10;100.00
64340;BME280;63709;53.258;-8.814;2023-02-28T02:00:05;103898.25;;;10.13;100.00
64340;BME280;63709;53.258;-8.814;2023-02-28T02:02:32;103893.81;;;10.12;100.00
64340;BME280;63709;53.258;-8.814;2023-02-28T02:05:06;103906.41;;;10.07;100.00
64340;BME280;63709;53.258;-8.814;2023-02-28T02:07:35;103908.13;;;10.09;100.00
64340;BME280;63709;53.258;-8.814;2023-02-28T02:10:05;103907.16;;;10.12;100.00
64340;BME280;63709;53.258;-8.814;2023-02-28T02:17:42;103909.06;;;10.07;100.00
64340;BME280;63709;53.258;-8.814;2023-02-28T02:25:56;103891.44;;;10.00;100.00
64340;BME280;63709;53.258;-8.814;2023-02-28T02:36:18;103895.09;;;9.96;100.00
64340;BME280;63709;53.258;-8.814;2023-02-28T02:43:46;103894.16;;;9.98;100.00
64340;BME280;63709;53.258;-8.814;2023-02-28T02:46:20;103888.91;;;9.93;100.00
64340;BME280;63709;53.258;-8.814;2023-02-28T02:48:47;103880.94;;;9.92;100.00
64340;BME280;63709;53.258;-8.814;2023-02-28T02:51:17;103881.81;;;9.92;100.00
64340;BME280;63709;53.258;-8.814;2023-02-28T02:54:08;103890.81;;;9.88;100.00
64340;BME280;63709;53.258;-8.814;2023-02-28T02:56:33;103887.03;;;9.99;100.00
64340;BME280;63709;53.258;-8.814;2023-02-28T02:59:01;103888.75;;;10.01;100.00
64340;BME280;63709;53.258;-8.814;2023-02-28T03:01:27;103879.91;;;9.99;100.00
64340;BME280;63709;53.258;-8.814;2023-02-28T03:04:01;103884.38;;;9.99;100.00
64340;BME280;63709;53.258;-8.814;2023-02-28T03:06:29;103871.81;;;10.02;100.00
64340;BME280;63709;53.258;-8.814;2023-02-28T03:08:55;103876.47;;;9.94;100.00
64340;BME280;63709;53.258;-8.814;2023-02-28T03:11:20;103876.34;;;9.99;100.00
64340;BME280;63709;53.258;-8.814;2023-02-28T03:21:36;103885.53;;;9.85;100.00
64340;BME280;63709;53.258;-8.814;2023-02-28T03:24:18;103877.53;;;9.85;100.00
64340;BME280;63709;53.258;-8.814;2023-02-28T03:29:43;103868.78;;;9.79;100.00
64340;BME280;63709;53.258;-8.814;2023-02-28T03:34:56;103874.06;;;9.82;100.00
64340;BME280;63709;53.258;-8.814;2023-02-28T03:37:26;103876.66;;;9.86;100.00
64340;BME280;63709;53.258;-8.814;2023-02-28T03:42:36;103866.16;;;9.77;100.00
64340;BME280;63709;53.258;-8.814;2023-02-28T03:45:21;103868.59;;;9.88;100.00
64340;BME280;63709;53.258;-8.814;2023-02-28T03:47:53;103859.84;;;9.83;100.00
64340;BME280;63709;53.258;-8.814;2023-02-28T03:50:24;103864.44;;;9.75;100.00
64340;BME280;63709;53.258;-8.814;2023-02-28T03:55:32;103872.66;;;9.65;100.00
64340;BME280;63709;53.258;-8.814;2023-02-28T03:58:22;103881.66;;;9.60;100.00
64340;BME280;63709;53.258;-8.814;2023-02-28T04:03:13;103870.91;;;9.64;100.00
64340;BME280;63709;53.258;-8.814;2023-02-28T04:05:57;103878.88;;;9.66;100.00
64340;BME280;63709;53.258;-8.814;2023-02-28T04:08:25;103882.44;;;9.65;100.00
64340;BME280;63709;53.258;-8.814;2023-02-28T04:11:36;103889.59;;;9.64;100.00
64340;BME280;63709;53.258;-8.814;2023-02-28T04:13:38;103890.44;;;9.65;100.00
64340;BME280;63709;53.258;-8.814;2023-02-28T04:16:07;103891.56;;;9.55;100.00
64340;BME280;63709;53.258;-8.814;2023-02-28T04:18:37;103895.16;;;9.52;100.00
64340;BME280;63709;53.258;-8.814;2023-02-28T04:21:18;103893.53;;;9.45;100.00
64340;BME280;63709;53.258;-8.814;2023-02-28T04:23:49;103899.56;;;9.55;100.00
64340;BME280;63709;53.258;-8.814;2023-02-28T04:26:15;103903.19;;;9.51;100.00
64340;BME280;63709;53.258;-8.814;2023-02-28T04:28:42;103907.56;;;9.55;100.00
64340;BME280;63709;53.258;-8.814;2023-02-28T04:31:08;103903.22;;;9.49;100.00
64340;BME280;63709;53.258;-8.814;2023-02-28T04:33:34;103913.22;;;9.38;100.00
64340;BME280;63709;53.258;-8.814;2023-02-28T04:36:02;103908.75;;;9.40;100.00
64340;BME280;63709;53.258;-8.814;2023-02-28T04:38:29;103912.16;;;9.47;100.00
64340;BME280;63709;53.258;-8.814;2023-02-28T04:40:56;103913.25;;;9.36;100.00
64340;BME280;63709;53.258;-8.814;2023-02-28T04:43:21;103911.19;;;9.51;100.00
64340;BME280;63709;53.258;-8.814;2023-02-28T04:45:49;103902.34;;;9.49;100.00
64340;BME280;63709;53.258;-8.814;2023-02-28T04:48:14;103900.53;;;9.51;100.00
64340;BME280;63709;53.258;-8.814;2023-02-28T04:50:42;103905.81;;;9.52;100.00
64340;BME280;63709;53.258;-8.814;2023-02-28T04:53:07;103912.13;;;9.50;100.00
64340;BME280;63709;53.258;-8.814;2023-02-28T04:55:32;103905.88;;;9.51;100.00
64340;BME280;63709;53.258;-8.814;2023-02-28T04:58:01;103908.66;;;9.44;100.00
64340;BME280;63709;53.258;-8.814;2023-02-28T05:00:26;103910.56;;;9.38;100.00
64340;BME280;63709;53.258;-8.814;2023-02-28T05:02:52;103897.91;;;9.48;100.00
64340;BME280;63709;53.258;-8.814;2023-02-28T05:05:18;103902.38;;;9.47;100.00
64340;BME280;63709;53.258;-8.814;2023-02-28T05:07:49;103902.28;;;9.52;100.00
64340;BME280;63709;53.258;-8.814;2023-02-28T05:10:16;103908.47;;;9.54;100.00
64340;BME280;63709;53.258;-8.814;2023-02-28T05:12:48;103907.56;;;9.55;100.00
64340;BME280;63709;53.258;-8.814;2023-02-28T05:15:15;103898.63;;;9.56;100.00
64340;BME280;63709;53.258;-8.814;2023-02-28T05:17:53;103903.31;;;9.44;100.00
64340;BME280;63709;53.258;-8.814;2023-02-28T05:20:31;103912.16;;;9.47;100.00
64340;BME280;63709;53.258;-8.814;2023-02-28T05:22:58;103920.38;;;9.36;100.00
64340;BME280;63709;53.258;-8.814;2023-02-28T05:25:25;103926.66;;;9.33;100.00
64340;BME280;63709;53.258;-8.814;2023-02-28T05:27:51;103927.50;;;9.35;100.00
64340;BME280;63709;53.258;-8.814;2023-02-28T05:30:16;103919.41;;;9.40;100.00
64340;BME280;63709;53.258;-8.814;2023-02-28T05:32:42;103919.38;;;9.41;100.00
64340;BME280;63709;53.258;-8.814;2023-02-28T05:35:10;103925.72;;;9.36;100.00
64340;BME280;63709;53.258;-8.814;2023-02-28T05:37:36;103925.81;;;9.31;100.00
64340;BME280;63709;53.258;-8.814;2023-02-28T05:40:03;103924.84;;;9.34;100.00
64340;BME280;63709;53.258;-8.814;2023-02-28T05:42:31;103940.91;;;9.32;100.00
64340;BME280;63709;53.258;-8.814;2023-02-28T05:44:58;103933.88;;;9.28;100.00
64340;BME280;63709;53.258;-8.814;2023-02-28T05:47:25;103948.06;;;9.29;100.00
64340;BME280;63709;53.258;-8.814;2023-02-28T05:49:51;103948.88;;;9.32;100.00
64340;BME280;63709;53.258;-8.814;2023-02-28T05:52:16;103941.97;;;9.22;100.00
64340;BME280;63709;53.258;-8.814;2023-02-28T05:57:11;103951.66;;;9.28;100.00
64340;BME280;63709;53.258;-8.814;2023-02-28T05:59:36;103961.44;;;9.27;100.00
64340;BME280;63709;53.258;-8.814;2023-02-28T06:04:39;103962.38;;;9.25;100.00
64340;BME280;63709;53.258;-8.814;2023-02-28T06:07:05;103956.03;;;9.30;100.00
64340;BME280;63709;53.258;-8.814;2023-02-28T06:12:00;103962.31;;;9.28;100.00
64340;BME280;63709;53.258;-8.814;2023-02-28T06:14:29;103960.56;;;9.25;100.00
64340;BME280;63709;53.258;-8.814;2023-02-28T06:16:58;103965.00;;;9.26;100.00
64340;BME280;63709;53.258;-8.814;2023-02-28T06:19:25;103963.97;;;9.33;100.00
64340;BME280;63709;53.258;-8.814;2023-02-28T06:21:53;103957.03;;;9.23;100.00
64340;BME280;63709;53.258;-8.814;2023-02-28T06:24:23;103963.25;;;9.25;100.00
64340;BME280;63709;53.258;-8.814;2023-02-28T06:26:51;103968.63;;;9.22;100.00
64340;BME280;63709;53.258;-8.814;2023-02-28T06:29:17;103970.38;;;9.23;100.00
64340;BME280;63709;53.258;-8.814;2023-02-28T06:31:44;103970.31;;;9.28;100.00
64340;BME280;63709;53.258;-8.814;2023-02-28T06:34:17;103970.22;;;9.32;100.00
64340;BME280;63709;53.258;-8.814;2023-02-28T06:36:42;103970.13;;;9.38;100.00
64340;BME280;63709;53.258;-8.814;2023-02-28T06:39:10;103975.59;;;9.29;100.00
64340;BME280;63709;53.258;-8.814;2023-02-28T06:41:35;103981.75;;;9.33;100.00
64340;BME280;63709;53.258;-8.814;2023-02-28T06:44:04;103979.00;;;9.37;100.00
64340;BME280;63709;53.258;-8.814;2023-02-28T06:46:31;103965.66;;;9.39;100.00
64340;BME280;63709;53.258;-8.814;2023-02-28T06:48:56;103962.19;;;9.34;100.00
64340;BME280;63709;53.258;-8.814;2023-02-28T06:51:22;103967.44;;;9.38;100.00
64340;BME280;63709;53.258;-8.814;2023-02-28T06:53:49;103968.28;;;9.42;100.00
64340;BME280;63709;53.258;-8.814;2023-02-28T06:56:15;103977.19;;;9.39;100.00
64340;BME280;63709;53.258;-8.814;2023-02-28T06:58:40;103975.50;;;9.35;100.00
64340;BME280;63709;53.258;-8.814;2023-02-28T07:01:07;103973.75;;;9.33;100.00
64340;BME280;63709;53.258;-8.814;2023-02-28T07:03:34;103980.78;;;9.38;100.00
64340;BME280;63709;53.258;-8.814;2023-02-28T07:05:59;103986.06;;;9.40;100.00
64340;BME280;63709;53.258;-8.814;2023-02-28T07:08:25;103988.72;;;9.40;100.00
64340;BME280;63709;53.258;-8.814;2023-02-28T07:10:53;103994.06;;;9.40;100.00
64340;BME280;63709;53.258;-8.814;2023-02-28T07:13:20;103993.34;;;9.30;100.00
64340;BME280;63709;53.258;-8.814;2023-02-28T07:15:52;103987.47;;;9.13;100.00
64340;BME280;63709;53.258;-8.814;2023-02-28T07:18:19;103983.69;;;9.25;100.00
64340;BME280;63709;53.258;-8.814;2023-02-28T07:20:44;103981.03;;;9.23;100.00
64340;BME280;63709;53.258;-8.814;2023-02-28T07:23:09;103982.81;;;9.24;100.00
64340;BME280;63709;53.258;-8.814;2023-02-28T07:25:34;103988.94;;;9.29;100.00
64340;BME280;63709;53.258;-8.814;2023-02-28T07:28:02;103982.69;;;9.30;100.00
64340;BME280;63709;53.258;-8.814;2023-02-28T07:30:27;103991.59;;;9.31;100.00
64340;BME280;63709;53.258;-8.814;2023-02-28T07:32:52;103987.09;;;9.33;100.00
64340;BME280;63709;53.258;-8.814;2023-02-28T07:35:19;103996.16;;;9.23;100.00
64340;BME280;63709;53.258;-8.814;2023-02-28T07:37:45;103995.94;;;9.35;100.00
64340;BME280;63709;53.258;-8.814;2023-02-28T07:40:12;104002.22;;;9.32;100.00
64340;BME280;63709;53.258;-8.814;2023-02-28T07:42:38;104006.75;;;9.27;100.00
64340;BME280;63709;53.258;-8.814;2023-02-28T07:45:04;104008.59;;;9.24;100.00
64340;BME280;63709;53.258;-8.814;2023-02-28T07:47:29;104009.66;;;9.13;100.00
64340;BME280;63709;53.258;-8.814;2023-02-28T07:49:56;104007.69;;;9.23;100.00
64340;BME280;63709;53.258;-8.814;2023-02-28T07:52:21;104015.00;;;9.13;100.00
64340;BME280;63709;53.258;-8.814;2023-02-28T07:54:48;104023.63;;;9.26;100.00
64340;BME280;63709;53.258;-8.814;2023-02-28T07:57:14;104020.00;;;9.32;100.00
64340;BME280;63709;53.258;-8.814;2023-02-28T07:59:39;104026.16;;;9.35;100.00
64340;BME280;63709;53.258;-8.814;2023-02-28T08:02:04;104032.31;;;9.37;100.00
64340;BME280;63709;53.258;-8.814;2023-02-28T08:04:31;104032.25;;;9.42;100.00
64340;BME280;63709;53.258;-8.814;2023-02-28T08:07:04;104038.47;;;9.42;100.00
64340;BME280;63709;53.258;-8.814;2023-02-28T08:09:35;104030.22;;;9.55;100.00
64340;BME280;63709;53.258;-8.814;2023-02-28T08:12:10;104033.91;;;9.48;100.00
64340;BME280;63709;53.258;-8.814;2023-02-28T08:14:37;104040.25;;;9.42;100.00
64340;BME280;63709;53.258;-8.814;2023-02-28T08:17:02;104041.03;;;9.47;100.00
64340;BME280;63709;53.258;-8.814;2023-02-28T08:19:28;104044.47;;;9.54;100.00
64340;BME280;63709;53.258;-8.814;2023-02-28T08:21:53;104051.66;;;9.49;100.00
64340;BME280;63709;53.258;-8.814;2023-02-28T08:24:19;104043.50;;;9.58;100.00
64340;BME280;63709;53.258;-8.814;2023-02-28T08:26:44;104040.78;;;9.61;100.00
64340;BME280;63709;53.258;-8.814;2023-02-28T08:35:02;104038.41;;;9.45;100.00
64340;BME280;63709;53.258;-8.814;2023-02-28T08:37:33;104046.97;;;9.63;100.00
64340;BME280;63709;53.258;-8.814;2023-02-28T08:40:05;104039.78;;;9.66;100.00
64340;BME280;63709;53.258;-8.814;2023-02-28T08:45:33;104027.94;;;9.81;100.00
64340;BME280;63709;53.258;-8.814;2023-02-28T08:51:02;104039.41;;;9.86;100.00
64340;BME280;63709;53.258;-8.814;2023-02-28T08:53:29;104040.28;;;9.85;100.00
64340;BME280;63709;53.258;-8.814;2023-02-28T08:56:03;104043.81;;;9.87;100.00
64340;BME280;63709;53.258;-8.814;2023-02-28T08:58:29;104050.97;;;9.85;100.00
64340;BME280;63709;53.258;-8.814;2023-02-28T09:00:54;104052.75;;;9.86;100.00
64340;BME280;63709;53.258;-8.814;2023-02-28T09:09:22;104057.06;;;9.92;100.00
64340;BME280;63709;53.258;-8.814;2023-02-28T09:11:47;104058.75;;;9.96;100.00
64340;BME280;63709;53.258;-8.814;2023-02-28T09:20:15;104058.75;;;9.98;100.00
64340;BME280;63709;53.258;-8.814;2023-02-28T09:25:40;104056.44;;;10.23;100.00
64340;BME280;63709;53.258;-8.814;2023-02-28T09:28:11;104048.41;;;10.24;100.00
64340;BME280;63709;53.258;-8.814;2023-02-28T09:33:40;104054.63;;;10.25;100.00
64340;BME280;63709;53.258;-8.814;2023-02-28T09:36:08;104066.16;;;10.27;100.00
64340;BME280;63709;53.258;-8.814;2023-02-28T09:38:33;104065.81;;;10.44;100.00
64340;BME280;63709;53.258;-8.814;2023-02-28T09:41:00;104071.03;;;10.50;100.00
64340;BME280;63709;53.258;-8.814;2023-02-28T09:43:32;104067.44;;;10.49;100.00
64340;BME280;63709;53.258;-8.814;2023-02-28T09:46:47;104070.91;;;10.54;100.00
64340;BME280;63709;53.258;-8.814;2023-02-28T09:48:47;104071.78;;;10.55;100.00
64340;BME280;63709;53.258;-8.814;2023-02-28T09:53:48;104058.66;;;10.46;100.00
64340;BME280;63709;53.258;-8.814;2023-02-28T09:56:21;104061.88;;;10.60;100.00
64340;BME280;63709;53.258;-8.814;2023-02-28T10:03:55;104062.44;;;10.74;100.00
64340;BME280;63709;53.258;-8.814;2023-02-28T10:06:22;104056.25;;;10.72;100.00
64340;BME280;63709;53.258;-8.814;2023-02-28T10:11:27;104058.06;;;10.70;100.00
64340;BME280;63709;53.258;-8.814;2023-02-28T10:16:47;104054.41;;;10.76;100.00
64340;BME280;63709;53.258;-8.814;2023-02-28T10:22:14;104064.97;;;10.80;100.00
64340;BME280;63709;53.258;-8.814;2023-02-28T10:27:37;104069.94;;;10.96;100.00
64340;BME280;63709;53.258;-8.814;2023-02-28T10:30:03;104065.94;;;11.13;100.00
64340;BME280;63709;53.258;-8.814;2023-02-28T10:32:33;104067.03;;;11.05;100.00
64340;BME280;63709;53.258;-8.814;2023-02-28T10:37:24;104063.97;;;10.84;100.00
64340;BME280;63709;53.258;-8.814;2023-02-28T10:39:49;104062.38;;;11.13;100.00
64340;BME280;63709;53.258;-8.814;2023-02-28T10:42:26;104062.59;;;11.05;100.00
64340;BME280;63709;53.258;-8.814;2023-02-28T10:45:05;104061.47;;;11.14;100.00
64340;BME280;63709;53.258;-8.814;2023-02-28T10:47:30;104062.16;;;11.22;100.00
64340;BME280;63709;53.258;-8.814;2023-02-28T10:49:58;104057.53;;;11.29;100.00
64340;BME280;63709;53.258;-8.814;2023-02-28T10:55:26;104057.75;;;11.20;100.00
64340;BME280;63709;53.258;-8.814;2023-02-28T10:57:56;104051.91;;;11.38;100.00
64340;BME280;63709;53.258;-8.814;2023-02-28T11:00:23;104055.28;;;11.46;100.00
64340;BME280;63709;53.258;-8.814;2023-02-28T11:02:50;104057.84;;;11.51;100.00
64340;BME280;63709;53.258;-8.814;2023-02-28T11:05:33;104051.19;;;11.66;100.00
64340;BME280;63709;53.258;-8.814;2023-02-28T11:08:37;104050.41;;;11.62;100.00
64340;BME280;63709;53.258;-8.814;2023-02-28T11:11:04;104048.38;;;11.70;100.00
64340;BME280;63709;53.258;-8.814;2023-02-28T11:13:35;104048.50;;;11.66;100.00
64340;BME280;63709;53.258;-8.814;2023-02-28T11:19:01;104050.56;;;11.89;100.00
64340;BME280;63709;53.258;-8.814;2023-02-28T11:24:00;104050.22;;;12.01;100.00
64340;BME280;63709;53.258;-8.814;2023-02-28T11:26:37;104053.03;;;11.96;100.00
64340;BME280;63709;53.258;-8.814;2023-02-28T11:29:05;104057.06;;;12.11;100.00
64340;BME280;63709;53.258;-8.814;2023-02-28T11:31:34;104054.56;;;12.05;100.00
64340;BME280;63709;53.258;-8.814;2023-02-28T11:34:00;104047.06;;;12.18;100.00
64340;BME280;63709;53.258;-8.814;2023-02-28T11:36:29;104058.31;;;12.29;100.00
64340;BME280;63709;53.258;-8.814;2023-02-28T11:52:56;104064.44;;;12.62;100.00
64340;BME280;63709;53.258;-8.814;2023-02-28T12:06:09;104053.47;;;12.70;100.00
64340;BME280;63709;53.258;-8.814;2023-02-28T12:27:58;104051.13;;;12.87;100.00
64340;BME280;63709;53.258;-8.814;2023-02-28T12:30:39;104051.78;;;12.94;100.00
64340;BME280;63709;53.258;-8.814;2023-02-28T12:36:09;104043.34;;;12.79;100.00
64340;BME280;63709;53.258;-8.814;2023-02-28T12:41:12;104038.38;;;12.67;97.73
64340;BME280;63709;53.258;-8.814;2023-02-28T12:52:02;104050.69;;;12.15;92.33
64340;BME280;63709;53.258;-8.814;2023-02-28T12:54:42;104053.44;;;12.12;92.60
64340;BME280;63709;53.258;-8.814;2023-02-28T12:57:11;104050.91;;;12.07;94.50
64340;BME280;63709;53.258;-8.814;2023-02-28T13:05:19;104046.88;;;11.93;98.37
64340;BME280;63709;53.258;-8.814;2023-02-28T13:10:55;104038.59;;;11.69;100.00
64340;BME280;63709;53.258;-8.814;2023-02-28T13:19:09;104031.31;;;11.74;99.56
64340;BME280;63709;53.258;-8.814;2023-02-28T13:21:46;104039.63;;;11.65;100.00
64340;BME280;63709;53.258;-8.814;2023-02-28T13:24:36;104041.28;;;11.69;95.70
64340;BME280;63709;53.258;-8.814;2023-02-28T13:27:20;104035.44;;;11.55;91.91
64340;BME280;63709;53.258;-8.814;2023-02-28T13:32:39;104021.84;;;11.62;94.52
64340;BME280;63709;53.258;-8.814;2023-02-28T13:37:42;104025.38;;;11.63;96.16
64340;BME280;63709;53.258;-8.814;2023-02-28T13:43:10;104023.50;;;11.67;92.05
64340;BME280;63709;53.258;-8.814;2023-02-28T13:45:37;104023.50;;;11.67;96.35
64340;BME280;63709;53.258;-8.814;2023-02-28T13:48:19;104018.81;;;11.75;95.82
64340;BME280;63709;53.258;-8.814;2023-02-28T13:50:50;104019.69;;;11.75;94.99
64340;BME280;63709;53.258;-8.814;2023-02-28T13:53:32;104015.31;;;11.73;95.02
64340;BME280;63709;53.258;-8.814;2023-02-28T13:59:00;104012.97;;;11.60;88.12
64340;BME280;63709;53.258;-8.814;2023-02-28T14:07:00;104005.47;;;11.73;91.26
64340;BME280;63709;53.258;-8.814;2023-02-28T14:09:31;103997.88;;;11.58;88.84
64340;BME280;63709;53.258;-8.814;2023-02-28T14:17:13;104003.69;;;11.41;87.61
64340;BME280;63709;53.258;-8.814;2023-02-28T14:19:40;104005.34;;;11.45;88.12
64340;BME280;63709;53.258;-8.814;2023-02-28T14:22:32;103998.84;;;11.55;91.70
64340;BME280;63709;53.258;-8.814;2023-02-28T14:36:00;104006.22;;;11.46;87.18
64340;BME280;63709;53.258;-8.814;2023-02-28T14:39:04;104001.59;;;11.52;82.19
64340;BME280;63709;53.258;-8.814;2023-02-28T14:41:35;103997.03;;;11.56;82.68
64340;BME280;63709;53.258;-8.814;2023-02-28T14:46:40;103996.16;;;11.57;81.27
64340;BME280;63709;53.258;-8.814;2023-02-28T14:49:12;103987.44;;;11.49;78.85
64340;BME280;63709;53.258;-8.814;2023-02-28T14:51:49;103993.63;;;11.51;79.11
64340;BME280;63709;53.258;-8.814;2023-02-28T14:57:28;103985.75;;;11.45;84.77
64340;BME280;63709;53.258;-8.814;2023-02-28T14:59:58;103984.75;;;11.49;83.77
64340;BME280;63709;53.258;-8.814;2023-02-28T15:02:26;103991.19;;;11.42;85.58
64340;BME280;63709;53.258;-8.814;2023-02-28T15:05:00;103992.09;;;11.42;84.11
64340;BME280;63709;53.258;-8.814;2023-02-28T15:07:26;103985.38;;;11.58;85.95
64340;BME280;63709;53.258;-8.814;2023-02-28T15:13:02;103976.13;;;11.70;86.24
64340;BME280;63709;53.258;-8.814;2023-02-28T15:21:07;103982.66;;;11.60;88.36
64340;BME280;63709;53.258;-8.814;2023-02-28T15:23:38;103981.97;;;11.53;91.19
64340;BME280;63709;53.258;-8.814;2023-02-28T15:26:05;103974.69;;;11.58;89.11
64340;BME280;63709;53.258;-8.814;2023-02-28T15:28:31;103980.38;;;11.46;92.16
64340;BME280;63709;53.258;-8.814;2023-02-28T15:33:34;103978.16;;;11.62;87.65
64340;BME280;63709;53.258;-8.814;2023-02-28T15:36:15;103977.03;;;11.38;87.70
64340;BME280;63709;53.258;-8.814;2023-02-28T15:38:43;103974.69;;;11.58;86.41
64340;BME280;63709;53.258;-8.814;2023-02-28T15:44:41;103970.69;;;11.42;80.91
64340;BME280;63709;53.258;-8.814;2023-02-28T15:51:53;103974.75;;;11.24;85.27
64340;BME280;63709;53.258;-8.814;2023-02-28T15:54:24;103958.78;;;11.54;82.22
64340;BME280;63709;53.258;-8.814;2023-02-28T15:56:52;103966.66;;;11.58;83.64
64340;BME280;63709;53.258;-8.814;2023-02-28T15:59:32;103969.28;;;11.60;84.57
64340;BME280;63709;53.258;-8.814;2023-02-28T16:07:28;103968.41;;;11.59;86.95
64340;BME280;63709;53.258;-8.814;2023-02-28T16:12:41;103980.91;;;11.28;83.65
64340;BME280;63709;53.258;-8.814;2023-02-28T16:15:24;103973.75;;;11.28;83.42
64340;BME280;63709;53.258;-8.814;2023-02-28T16:17:56;103977.03;;;11.38;83.67
64340;BME280;63709;53.258;-8.814;2023-02-28T16:20:24;103980.84;;;11.29;85.74
64340;BME280;63709;53.258;-8.814;2023-02-28T16:22:50;103984.06;;;11.42;86.76
64340;BME280;63709;53.258;-8.814;2023-02-28T16:25:16;103980.97;;;11.25;86.01
64340;BME280;63709;53.258;-8.814;2023-02-28T16:27:42;103989.34;;;11.11;88.28
64340;BME280;63709;53.258;-8.814;2023-02-28T16:30:14;103991.91;;;11.15;89.47
64340;BME280;63709;53.258;-8.814;2023-02-28T16:32:44;103985.94;;;11.06;89.13
64340;BME280;63709;53.258;-8.814;2023-02-28T16:35:10;103996.25;;;11.20;90.78
64340;BME280;63709;53.258;-8.814;2023-02-28T16:37:42;103992.00;;;11.12;91.87
64340;BME280;63709;53.258;-8.814;2023-02-28T16:40:12;103999.72;;;10.89;91.44
64340;BME280;63709;53.258;-8.814;2023-02-28T16:42:40;103993.28;;;10.98;90.79
64340;BME280;63709;53.258;-8.814;2023-02-28T16:45:05;103994.38;;;10.89;90.75
64340;BME280;63709;53.258;-8.814;2023-02-28T16:47:31;103995.16;;;10.93;91.72
64340;BME280;63709;53.258;-8.814;2023-02-28T16:49:57;103999.50;;;10.98;89.84
64340;BME280;63709;53.258;-8.814;2023-02-28T16:55:25;103996.56;;;11.09;87.63
64340;BME280;63709;53.258;-8.814;2023-02-28T16:57:52;103995.97;;;10.96;88.23
64340;BME280;63709;53.258;-8.814;2023-02-28T17:00:18;103994.06;;;11.01;89.14
64340;BME280;63709;53.258;-8.814;2023-02-28T17:05:49;104005.31;;;10.80;85.74
64340;BME280;63709;53.258;-8.814;2023-02-28T17:08:15;104004.44;;;10.78;85.53
64340;BME280;63709;53.258;-8.814;2023-02-28T17:10:41;104007.84;;;10.84;82.79
64340;BME280;63709;53.258;-8.814;2023-02-28T17:13:07;104005.84;;;10.93;83.48
64340;BME280;63709;53.258;-8.814;2023-02-28T17:15:33;104008.47;;;10.96;82.33